sensor_id;sensor_type;location;lat;lon;timestamp;P1;durP1;ratioP1;P2;durP2;ratioP2
27201;SDS011;14717;46.924;15.474;2022-09-09T00:06:26;4.18;;;1.23;;
27201;SDS011;14717;46.924;15.474;2022-09-09T00:09:00;3.40;;;1.10;;
27201;SDS011;14717;46.924;15.474;2022-09-09T00:17:00;5.22;;;1.30;;
27201;SDS011;14717;46.924;15.474;2022-09-09T00:22:19;3.90;;;1.30;;
27201;SDS011;14717;46.924;15.474;2022-09-09T00:24:54;2.30;;;1.20;;
27201;SDS011;14717;46.924;15.474;2022-09-09T00:30:13;1.50;;;1.10;;
27201;SDS011;14717;46.924;15.474;2022-09-09T00:32:39;2.17;;;1.10;;
27201;SDS011;14717;46.924;15.474;2022-09-09T00:37:37;3.53;;;1.00;;
27201;SDS011;14717;46.924;15.474;2022-09-09T00:40:07;4.63;;;1.15;;
27201;SDS011;14717;46.924;15.474;2022-09-09T00:42:43;1.77;;;1.05;;
27201;SDS011;14717;46.924;15.474;2022-09-09T00:45:17;3.45;;;0.90;;
27201;SDS011;14717;46.924;15.474;2022-09-09T00:47:51;3.05;;;1.17;;
27201;SDS011;14717;46.924;15.474;2022-09-09T00:53:27;2.88;;;1.10;;
27201;SDS011;14717;46.924;15.474;2022-09-09T00:56:13;3.10;;;0.90;;
27201;SDS011;14717;46.924;15.474;2022-09-09T01:01:49;2.63;;;1.42;;
27201;SDS011;14717;46.924;15.474;2022-09-09T01:04:18;2.13;;;1.00;;
27201;SDS011;14717;46.924;15.474;2022-09-09T01:06:53;1.10;;;0.90;;
27201;SDS011;14717;46.924;15.474;2022-09-09T01:12:16;2.53;;;1.10;;
27201;SDS011;14717;46.924;15.474;2022-09-09T01:14:50;1.98;;;1.00;;
27201;SDS011;14717;46.924;15.474;2022-09-09T01:17:23;4.18;;;1.15;;
27201;SDS011;14717;46.924;15.474;2022-09-09T01:27:32;2.47;;;1.00;;
27201;SDS011;14717;46.924;15.474;2022-09-09T01:30:00;2.80;;;1.10;;
27201;SDS011;14717;46.924;15.474;2022-09-09T01:35:10;4.90;;;1.23;;
27201;SDS011;14717;46.924;15.474;2022-09-09T01:37:43;1.98;;;1.02;;
27201;SDS011;14717;46.924;15.474;2022-09-09T01:40:08;4.75;;;0.90;;
27201;SDS011;14717;46.924;15.474;2022-09-09T01:44:59;6.10;;;1.10;;
27201;SDS011;14717;46.924;15.474;2022-09-09T01:49:50;1.23;;;0.88;;
27201;SDS011;14717;46.924;15.474;2022-09-09T01:54:41;2.90;;;0.90;;
27201;SDS011;14717;46.924;15.474;2022-09-09T02:02:19;3.25;;;1.05;;
27201;SDS011;14717;46.924;15.474;2022-09-09T02:04:56;2.20;;;0.70;;
27201;SDS011;14717;46.924;15.474;2022-09-09T02:10:55;4.63;;;1.10;;
27201;SDS011;14717;46.924;15.474;2022-09-09T02:13:19;2.78;;;1.00;;
27201;SDS011;14717;46.924;15.474;2022-09-09T02:15:57;5.15;;;0.98;;
27201;SDS011;14717;46.924;15.474;2022-09-09T02:18:30;4.88;;;0.90;;
27201;SDS011;14717;46.924;15.474;2022-09-09T02:21:00;4.50;;;1.00;;
27201;SDS011;14717;46.924;15.474;2022-09-09T02:23:28;2.88;;;1.00;;
27201;SDS011;14717;46.924;15.474;2022-09-09T02:25:55;6.60;;;1.02;;
27201;SDS011;14717;46.924;15.474;2022-09-09T02:28:23;1.98;;;0.70;;
27201;SDS011;14717;46.924;15.474;2022-09-09T02:30:52;3.80;;;0.90;;
27201;SDS011;14717;46.924;15.474;2022-09-09T02:33:20;1.17;;;0.68;;
27201;SDS011;14717;46.924;15.474;2022-09-09T02:35:50;1.35;;;0.80;;
27201;SDS011;14717;46.924;15.474;2022-09-09T02:38:16;4.72;;;1.00;;
27201;SDS011;14717;46.924;15.474;2022-09-09T02:40:43;1.90;;;1.00;;
27201;SDS011;14717;46.924;15.474;2022-09-09T02:43:09;2.45;;;0.90;;
27201;SDS011;14717;46.924;15.474;2022-09-09T02:48:34;2.42;;;0.80;;
27201;SDS011;14717;46.924;15.474;2022-09-09T02:53:50;3.17;;;0.95;;
27201;SDS011;14717;46.924;15.474;2022-09-09T02:56:39;2.90;;;0.90;;
27201;SDS011;14717;46.924;15.474;2022-09-09T02:59:11;7.13;;;1.05;;
27201;SDS011;14717;46.924;15.474;2022-09-09T03:01:36;4.63;;;1.13;;
27201;SDS011;14717;46.924;15.474;2022-09-09T03:04:03;4.07;;;1.10;;
27201;SDS011;14717;46.924;15.474;2022-09-09T03:06:30;2.80;;;0.85;;
27201;SDS011;14717;46.924;15.474;2022-09-09T03:11:21;5.00;;;1.23;;
27201;SDS011;14717;46.924;15.474;2022-09-09T03:16:12;3.42;;;0.95;;
27201;SDS011;14717;46.924;15.474;2022-09-09T03:21:02;3.92;;;1.33;;
27201;SDS011;14717;46.924;15.474;2022-09-09T03:25:54;1.77;;;0.93;;
27201;SDS011;14717;46.924;15.474;2022-09-09T03:28:22;2.88;;;0.80;;
27201;SDS011;14717;46.924;15.474;2022-09-09T03:30:48;2.95;;;0.90;;
27201;SDS011;14717;46.924;15.474;2022-09-09T03:35:44;3.15;;;1.10;;
27201;SDS011;14717;46.924;15.474;2022-09-09T03:38:13;4.93;;;1.10;;
27201;SDS011;14717;46.924;15.474;2022-09-09T03:43:04;3.15;;;0.80;;
27201;SDS011;14717;46.924;15.474;2022-09-09T03:45:29;1.13;;;0.90;;
27201;SDS011;14717;46.924;15.474;2022-09-09T03:50:22;1.27;;;0.75;;
27201;SDS011;14717;46.924;15.474;2022-09-09T03:52:48;4.75;;;1.05;;
27201;SDS011;14717;46.924;15.474;2022-09-09T03:57:39;1.33;;;0.90;;
27201;SDS011;14717;46.924;15.474;2022-09-09T04:00:05;2.75;;;0.80;;
27201;SDS011;14717;46.924;15.474;2022-09-09T04:02:32;2.67;;;1.00;;
27201;SDS011;14717;46.924;15.474;2022-09-09T04:07:24;4.45;;;1.00;;
27201;SDS011;14717;46.924;15.474;2022-09-09T04:09:52;2.88;;;0.75;;
27201;SDS011;14717;46.924;15.474;2022-09-09T04:14:43;5.23;;;1.07;;
27201;SDS011;14717;46.924;15.474;2022-09-09T04:19:34;4.13;;;1.73;;
27201;SDS011;14717;46.924;15.474;2022-09-09T04:24:24;4.87;;;1.30;;
27201;SDS011;14717;46.924;15.474;2022-09-09T04:26:52;4.38;;;1.10;;
27201;SDS011;14717;46.924;15.474;2022-09-09T04:31:43;7.33;;;1.10;;
27201;SDS011;14717;46.924;15.474;2022-09-09T04:34:09;2.55;;;1.00;;
27201;SDS011;14717;46.924;15.474;2022-09-09T04:39:00;4.13;;;1.40;;
27201;SDS011;14717;46.924;15.474;2022-09-09T04:43:51;2.40;;;1.10;;
27201;SDS011;14717;46.924;15.474;2022-09-09T04:46:18;2.50;;;1.00;;
27201;SDS011;14717;46.924;15.474;2022-09-09T04:48:44;2.25;;;1.08;;
27201;SDS011;14717;46.924;15.474;2022-09-09T04:53:38;4.05;;;1.23;;
27201;SDS011;14717;46.924;15.474;2022-09-09T04:58:39;1.80;;;1.00;;
27201;SDS011;14717;46.924;15.474;2022-09-09T05:01:13;2.28;;;1.52;;
27201;SDS011;14717;46.924;15.474;2022-09-09T05:03:43;4.03;;;1.17;;
27201;SDS011;14717;46.924;15.474;2022-09-09T05:06:11;5.85;;;1.27;;
27201;SDS011;14717;46.924;15.474;2022-09-09T05:08:41;3.63;;;1.30;;
27201;SDS011;14717;46.924;15.474;2022-09-09T05:11:17;5.35;;;1.00;;
27201;SDS011;14717;46.924;15.474;2022-09-09T05:13:50;2.67;;;1.30;;
27201;SDS011;14717;46.924;15.474;2022-09-09T05:16:16;2.08;;;1.20;;
27201;SDS011;14717;46.924;15.474;2022-09-09T05:18:43;6.03;;;1.38;;
27201;SDS011;14717;46.924;15.474;2022-09-09T05:21:09;5.10;;;1.40;;
27201;SDS011;14717;46.924;15.474;2022-09-09T05:23:38;4.53;;;1.60;;
27201;SDS011;14717;46.924;15.474;2022-09-09T05:26:04;2.90;;;1.40;;
27201;SDS011;14717;46.924;15.474;2022-09-09T05:28:33;4.65;;;1.50;;
27201;SDS011;14717;46.924;15.474;2022-09-09T05:31:03;3.38;;;1.83;;
27201;SDS011;14717;46.924;15.474;2022-09-09T05:33:33;4.80;;;1.67;;
27201;SDS011;14717;46.924;15.474;2022-09-09T05:36:00;5.75;;;1.60;;
27201;SDS011;14717;46.924;15.474;2022-09-09T05:38:27;3.17;;;1.80;;
27201;SDS011;14717;46.924;15.474;2022-09-09T05:40:54;5.05;;;1.73;;
27201;SDS011;14717;46.924;15.474;2022-09-09T05:43:21;4.28;;;1.60;;
27201;SDS011;14717;46.924;15.474;2022-09-09T05:45:48;3.38;;;1.50;;
27201;SDS011;14717;46.924;15.474;2022-09-09T05:48:14;7.43;;;1.48;;
27201;SDS011;14717;46.924;15.474;2022-09-09T05:50:41;3.65;;;1.40;;
27201;SDS011;14717;46.924;15.474;2022-09-09T05:53:07;4.00;;;1.30;;
27201;SDS011;14717;46.924;15.474;2022-09-09T05:55:33;4.45;;;1.52;;
27201;SDS011;14717;46.924;15.474;2022-09-09T05:57:59;2.50;;;1.35;;
27201;SDS011;14717;46.924;15.474;2022-09-09T06:00:24;4.53;;;1.55;;
27201;SDS011;14717;46.924;15.474;2022-09-09T06:02:51;4.53;;;1.30;;
27201;SDS011;14717;46.924;15.474;2022-09-09T06:05:17;2.80;;;1.35;;
27201;SDS011;14717;46.924;15.474;2022-09-09T06:07:43;3.13;;;1.38;;
27201;SDS011;14717;46.924;15.474;2022-09-09T06:10:10;4.00;;;1.50;;
27201;SDS011;14717;46.924;15.474;2022-09-09T06:12:38;6.25;;;1.50;;
27201;SDS011;14717;46.924;15.474;2022-09-09T06:15:04;3.40;;;1.48;;
27201;SDS011;14717;46.924;15.474;2022-09-09T06:17:30;4.03;;;1.65;;
27201;SDS011;14717;46.924;15.474;2022-09-09T06:19:55;4.28;;;1.80;;
27201;SDS011;14717;46.924;15.474;2022-09-09T06:22:21;6.13;;;1.75;;
27201;SDS011;14717;46.924;15.474;2022-09-09T06:24:46;3.28;;;1.40;;
27201;SDS011;14717;46.924;15.474;2022-09-09T06:27:11;3.17;;;1.52;;
27201;SDS011;14717;46.924;15.474;2022-09-09T06:29:38;6.57;;;1.60;;
27201;SDS011;14717;46.924;15.474;2022-09-09T06:32:04;3.28;;;1.50;;
27201;SDS011;14717;46.924;15.474;2022-09-09T06:34:29;6.15;;;1.65;;
27201;SDS011;14717;46.924;15.474;2022-09-09T06:36:55;3.70;;;1.67;;
27201;SDS011;14717;46.924;15.474;2022-09-09T06:39:22;5.22;;;1.70;;
27201;SDS011;14717;46.924;15.474;2022-09-09T06:41:48;3.97;;;1.58;;
27201;SDS011;14717;46.924;15.474;2022-09-09T06:44:14;4.80;;;1.80;;
27201;SDS011;14717;46.924;15.474;2022-09-09T06:46:40;2.03;;;1.38;;
27201;SDS011;14717;46.924;15.474;2022-09-09T06:49:07;4.75;;;1.70;;
27201;SDS011;14717;46.924;15.474;2022-09-09T06:51:34;4.97;;;1.77;;
27201;SDS011;14717;46.924;15.474;2022-09-09T06:54:01;2.65;;;1.60;;
27201;SDS011;14717;46.924;15.474;2022-09-09T06:56:32;3.42;;;1.77;;
27201;SDS011;14717;46.924;15.474;2022-09-09T06:59:00;6.53;;;2.40;;
27201;SDS011;14717;46.924;15.474;2022-09-09T07:01:29;3.22;;;1.80;;
27201;SDS011;14717;46.924;15.474;2022-09-09T07:03:57;3.95;;;1.80;;
27201;SDS011;14717;46.924;15.474;2022-09-09T07:06:43;5.70;;;1.70;;
27201;SDS011;14717;46.924;15.474;2022-09-09T07:09:11;2.45;;;1.52;;
27201;SDS011;14717;46.924;15.474;2022-09-09T07:11:39;4.15;;;1.70;;
27201;SDS011;14717;46.924;15.474;2022-09-09T07:14:09;2.42;;;1.67;;
27201;SDS011;14717;46.924;15.474;2022-09-09T07:16:39;4.03;;;1.90;;
27201;SDS011;14717;46.924;15.474;2022-09-09T07:19:08;4.70;;;2.03;;
27201;SDS011;14717;46.924;15.474;2022-09-09T07:21:35;3.58;;;1.80;;
27201;SDS011;14717;46.924;15.474;2022-09-09T07:24:01;5.47;;;1.90;;
27201;SDS011;14717;46.924;15.474;2022-09-09T07:26:28;5.28;;;2.10;;
27201;SDS011;14717;46.924;15.474;2022-09-09T07:28:55;4.32;;;2.50;;
27201;SDS011;14717;46.924;15.474;2022-09-09T07:31:27;3.00;;;1.70;;
27201;SDS011;14717;46.924;15.474;2022-09-09T07:33:57;3.90;;;1.90;;
27201;SDS011;14717;46.924;15.474;2022-09-09T07:36:25;4.30;;;1.75;;
27201;SDS011;14717;46.924;15.474;2022-09-09T07:38:56;5.20;;;2.70;;
27201;SDS011;14717;46.924;15.474;2022-09-09T07:44:10;3.50;;;1.80;;
27201;SDS011;14717;46.924;15.474;2022-09-09T07:49:06;2.78;;;1.73;;
27201;SDS011;14717;46.924;15.474;2022-09-09T07:51:34;4.53;;;1.88;;
27201;SDS011;14717;46.924;15.474;2022-09-09T07:54:03;4.68;;;1.67;;
27201;SDS011;14717;46.924;15.474;2022-09-09T07:56:30;4.85;;;1.70;;
27201;SDS011;14717;46.924;15.474;2022-09-09T07:58:57;4.22;;;1.80;;
27201;SDS011;14717;46.924;15.474;2022-09-09T08:01:25;3.92;;;1.77;;
27201;SDS011;14717;46.924;15.474;2022-09-09T08:03:59;6.03;;;1.90;;
27201;SDS011;14717;46.924;15.474;2022-09-09T08:06:29;3.42;;;1.52;;
27201;SDS011;14717;46.924;15.474;2022-09-09T08:08:59;4.40;;;1.73;;
27201;SDS011;14717;46.924;15.474;2022-09-09T08:11:26;3.95;;;1.55;;
27201;SDS011;14717;46.924;15.474;2022-09-09T08:13:53;3.45;;;1.60;;
27201;SDS011;14717;46.924;15.474;2022-09-09T08:16:20;2.67;;;1.65;;
27201;SDS011;14717;46.924;15.474;2022-09-09T08:18:51;5.28;;;2.00;;
27201;SDS011;14717;46.924;15.474;2022-09-09T08:21:18;4.55;;;1.73;;
27201;SDS011;14717;46.924;15.474;2022-09-09T08:23:49;6.55;;;1.80;;
27201;SDS011;14717;46.924;15.474;2022-09-09T08:26:30;3.38;;;1.80;;
27201;SDS011;14717;46.924;15.474;2022-09-09T08:28:58;3.20;;;1.60;;
27201;SDS011;14717;46.924;15.474;2022-09-09T08:31:32;5.07;;;2.00;;
27201;SDS011;14717;46.924;15.474;2022-09-09T08:33:59;3.83;;;1.90;;
27201;SDS011;14717;46.924;15.474;2022-09-09T08:36:29;3.10;;;1.80;;
27201;SDS011;14717;46.924;15.474;2022-09-09T08:38:58;3.22;;;1.92;;
27201;SDS011;14717;46.924;15.474;2022-09-09T08:57:49;3.30;;;1.77;;
27201;SDS011;14717;46.924;15.474;2022-09-09T09:00:17;2.70;;;1.80;;
27201;SDS011;14717;46.924;15.474;2022-09-09T09:02:46;2.97;;;1.67;;
27201;SDS011;14717;46.924;15.474;2022-09-09T09:05:32;2.83;;;1.60;;
27201;SDS011;14717;46.924;15.474;2022-09-09T09:10:50;3.55;;;1.88;;
27201;SDS011;14717;46.924;15.474;2022-09-09T09:16:07;2.80;;;1.60;;
27201;SDS011;14717;46.924;15.474;2022-09-09T09:18:57;4.40;;;1.90;;
27201;SDS011;14717;46.924;15.474;2022-09-09T09:21:36;3.40;;;1.65;;
27201;SDS011;14717;46.924;15.474;2022-09-09T09:24:28;3.05;;;1.83;;
27201;SDS011;14717;46.924;15.474;2022-09-09T09:26:57;2.90;;;1.70;;
27201;SDS011;14717;46.924;15.474;2022-09-09T09:29:26;3.38;;;1.70;;
27201;SDS011;14717;46.924;15.474;2022-09-09T09:31:52;3.53;;;1.70;;
27201;SDS011;14717;46.924;15.474;2022-09-09T09:34:20;5.00;;;1.70;;
27201;SDS011;14717;46.924;15.474;2022-09-09T09:36:52;4.75;;;1.83;;
27201;SDS011;14717;46.924;15.474;2022-09-09T09:42:09;2.95;;;1.45;;
27201;SDS011;14717;46.924;15.474;2022-09-09T09:44:39;4.10;;;1.60;;
27201;SDS011;14717;46.924;15.474;2022-09-09T09:47:10;4.28;;;1.35;;
27201;SDS011;14717;46.924;15.474;2022-09-09T09:49:56;2.65;;;1.17;;
27201;SDS011;14717;46.924;15.474;2022-09-09T09:52:25;3.28;;;1.90;;
27201;SDS011;14717;46.924;15.474;2022-09-09T09:54:53;2.10;;;1.38;;
27201;SDS011;14717;46.924;15.474;2022-09-09T09:57:22;3.22;;;1.30;;
27201;SDS011;14717;46.924;15.474;2022-09-09T10:02:40;1.95;;;1.23;;
27201;SDS011;14717;46.924;15.474;2022-09-09T10:05:15;2.90;;;1.30;;
27201;SDS011;14717;46.924;15.474;2022-09-09T10:19:12;2.92;;;1.33;;
27201;SDS011;14717;46.924;15.474;2022-09-09T10:33:21;2.38;;;1.35;;
27201;SDS011;14717;46.924;15.474;2022-09-09T10:36:24;3.60;;;1.40;;
27201;SDS011;14717;46.924;15.474;2022-09-09T10:39:02;3.45;;;1.33;;
27201;SDS011;14717;46.924;15.474;2022-09-09T10:56:08;5.28;;;1.52;;
27201;SDS011;14717;46.924;15.474;2022-09-09T11:01:30;3.83;;;1.27;;
27201;SDS011;14717;46.924;15.474;2022-09-09T11:04:21;1.90;;;1.20;;
27201;SDS011;14717;46.924;15.474;2022-09-09T11:06:50;4.00;;;1.40;;
27201;SDS011;14717;46.924;15.474;2022-09-09T11:09:24;5.00;;;1.45;;
27201;SDS011;14717;46.924;15.474;2022-09-09T11:11:57;2.00;;;1.20;;
27201;SDS011;14717;46.924;15.474;2022-09-09T11:14:31;2.22;;;1.30;;
27201;SDS011;14717;46.924;15.474;2022-09-09T11:17:15;4.43;;;1.50;;
27201;SDS011;14717;46.924;15.474;2022-09-09T11:19:43;2.92;;;1.27;;
27201;SDS011;14717;46.924;15.474;2022-09-09T11:22:18;2.85;;;1.50;;
27201;SDS011;14717;46.924;15.474;2022-09-09T11:27:44;3.60;;;1.40;;
27201;SDS011;14717;46.924;15.474;2022-09-09T11:30:22;4.57;;;1.30;;
27201;SDS011;14717;46.924;15.474;2022-09-09T11:35:58;3.40;;;1.52;;
27201;SDS011;14717;46.924;15.474;2022-09-09T11:38:26;3.03;;;1.30;;
27201;SDS011;14717;46.924;15.474;2022-09-09T11:40:56;2.30;;;1.20;;
27201;SDS011;14717;46.924;15.474;2022-09-09T11:46:05;4.35;;;1.45;;
27201;SDS011;14717;46.924;15.474;2022-09-09T11:48:34;4.22;;;1.40;;
27201;SDS011;14717;46.924;15.474;2022-09-09T11:51:03;2.47;;;1.20;;
27201;SDS011;14717;46.924;15.474;2022-09-09T11:53:30;2.30;;;1.20;;
27201;SDS011;14717;46.924;15.474;2022-09-09T11:56:00;2.08;;;1.10;;
27201;SDS011;14717;46.924;15.474;2022-09-09T12:01:12;3.03;;;1.30;;
27201;SDS011;14717;46.924;15.474;2022-09-09T12:04:05;2.25;;;1.35;;
27201;SDS011;14717;46.924;15.474;2022-09-09T12:06:45;3.60;;;1.40;;
27201;SDS011;14717;46.924;15.474;2022-09-09T12:09:48;4.60;;;1.45;;
27201;SDS011;14717;46.924;15.474;2022-09-09T12:14:42;5.13;;;1.30;;
27201;SDS011;14717;46.924;15.474;2022-09-09T12:20:36;3.53;;;1.50;;
27201;SDS011;14717;46.924;15.474;2022-09-09T12:28:32;2.10;;;1.30;;
27201;SDS011;14717;46.924;15.474;2022-09-09T12:33:48;2.28;;;1.30;;
27201;SDS011;14717;46.924;15.474;2022-09-09T12:36:17;2.65;;;1.40;;
27201;SDS011;14717;46.924;15.474;2022-09-09T12:38:46;3.20;;;1.33;;
27201;SDS011;14717;46.924;15.474;2022-09-09T12:41:30;3.45;;;1.40;;
27201;SDS011;14717;46.924;15.474;2022-09-09T12:44:05;3.30;;;1.55;;
27201;SDS011;14717;46.924;15.474;2022-09-09T12:46:34;5.50;;;1.65;;
27201;SDS011;14717;46.924;15.474;2022-09-09T12:49:03;2.10;;;1.30;;
27201;SDS011;14717;46.924;15.474;2022-09-09T12:51:31;4.55;;;1.50;;
27201;SDS011;14717;46.924;15.474;2022-09-09T12:53:58;2.75;;;1.30;;
27201;SDS011;14717;46.924;15.474;2022-09-09T12:56:30;2.30;;;1.48;;
27201;SDS011;14717;46.924;15.474;2022-09-09T12:59:00;2.58;;;1.38;;
27201;SDS011;14717;46.924;15.474;2022-09-09T13:01:27;3.70;;;1.23;;
27201;SDS011;14717;46.924;15.474;2022-09-09T13:03:59;2.80;;;1.20;;
27201;SDS011;14717;46.924;15.474;2022-09-09T13:06:27;2.08;;;1.10;;
27201;SDS011;14717;46.924;15.474;2022-09-09T13:08:56;4.07;;;1.60;;
27201;SDS011;14717;46.924;15.474;2022-09-09T13:11:26;2.33;;;1.50;;
27201;SDS011;14717;46.924;15.474;2022-09-09T13:14:04;4.10;;;1.40;;
27201;SDS011;14717;46.924;15.474;2022-09-09T13:16:34;2.95;;;1.60;;
27201;SDS011;14717;46.924;15.474;2022-09-09T13:21:39;2.50;;;1.38;;
27201;SDS011;14717;46.924;15.474;2022-09-09T13:24:06;2.83;;;1.48;;
27201;SDS011;14717;46.924;15.474;2022-09-09T13:26:57;3.83;;;1.80;;
27201;SDS011;14717;46.924;15.474;2022-09-09T13:29:27;2.53;;;1.30;;
27201;SDS011;14717;46.924;15.474;2022-09-09T13:31:52;2.42;;;1.50;;
27201;SDS011;14717;46.924;15.474;2022-09-09T13:34:26;3.42;;;1.48;;
27201;SDS011;14717;46.924;15.474;2022-09-09T13:37:02;2.67;;;1.20;;
27201;SDS011;14717;46.924;15.474;2022-09-09T13:39:33;3.45;;;1.58;;
27201;SDS011;14717;46.924;15.474;2022-09-09T13:42:01;3.45;;;1.45;;
27201;SDS011;14717;46.924;15.474;2022-09-09T13:44:35;2.50;;;1.40;;
27201;SDS011;14717;46.924;15.474;2022-09-09T13:47:05;2.28;;;1.25;;
27201;SDS011;14717;46.924;15.474;2022-09-09T13:49:42;4.13;;;1.50;;
27201;SDS011;14717;46.924;15.474;2022-09-09T13:54:37;1.58;;;1.17;;
27201;SDS011;14717;46.924;15.474;2022-09-09T13:57:02;4.53;;;1.50;;
27201;SDS011;14717;46.924;15.474;2022-09-09T13:59:29;2.03;;;1.30;;
27201;SDS011;14717;46.924;15.474;2022-09-09T14:01:56;3.42;;;1.35;;
27201;SDS011;14717;46.924;15.474;2022-09-09T14:04:22;3.92;;;1.52;;
27201;SDS011;14717;46.924;15.474;2022-09-09T14:06:51;1.52;;;1.10;;
27201;SDS011;14717;46.924;15.474;2022-09-09T14:09:17;2.40;;;1.40;;
27201;SDS011;14717;46.924;15.474;2022-09-09T14:11:43;2.78;;;1.27;;
27201;SDS011;14717;46.924;15.474;2022-09-09T14:14:10;2.63;;;1.42;;
27201;SDS011;14717;46.924;15.474;2022-09-09T14:16:36;5.43;;;1.35;;
27201;SDS011;14717;46.924;15.474;2022-09-09T14:19:08;1.33;;;1.10;;
27201;SDS011;14717;46.924;15.474;2022-09-09T14:21:34;2.05;;;1.10;;
27201;SDS011;14717;46.924;15.474;2022-09-09T14:24:00;1.30;;;1.08;;
27201;SDS011;14717;46.924;15.474;2022-09-09T14:26:26;1.60;;;1.10;;
27201;SDS011;14717;46.924;15.474;2022-09-09T14:28:56;2.78;;;1.27;;
27201;SDS011;14717;46.924;15.474;2022-09-09T14:31:22;4.45;;;1.40;;
27201;SDS011;14717;46.924;15.474;2022-09-09T14:33:48;4.03;;;1.60;;
27201;SDS011;14717;46.924;15.474;2022-09-09T14:36:13;3.30;;;1.40;;
27201;SDS011;14717;46.924;15.474;2022-09-09T14:38:40;2.47;;;1.40;;
27201;SDS011;14717;46.924;15.474;2022-09-09T14:41:07;3.47;;;1.50;;
27201;SDS011;14717;46.924;15.474;2022-09-09T14:43:38;2.70;;;1.35;;
27201;SDS011;14717;46.924;15.474;2022-09-09T14:46:05;7.90;;;1.80;;
27201;SDS011;14717;46.924;15.474;2022-09-09T14:48:31;4.93;;;1.58;;
27201;SDS011;14717;46.924;15.474;2022-09-09T14:50:57;5.25;;;1.52;;
27201;SDS011;14717;46.924;15.474;2022-09-09T14:53:40;10.43;;;2.10;;
27201;SDS011;14717;46.924;15.474;2022-09-09T14:56:10;3.55;;;1.60;;
27201;SDS011;14717;46.924;15.474;2022-09-09T14:58:38;2.88;;;1.50;;
27201;SDS011;14717;46.924;15.474;2022-09-09T15:01:22;4.75;;;1.55;;
27201;SDS011;14717;46.924;15.474;2022-09-09T15:06:15;5.30;;;1.58;;
27201;SDS011;14717;46.924;15.474;2022-09-09T15:08:42;2.10;;;1.40;;
27201;SDS011;14717;46.924;15.474;2022-09-09T15:11:09;2.85;;;1.45;;
27201;SDS011;14717;46.924;15.474;2022-09-09T15:13:36;2.47;;;1.30;;
27201;SDS011;14717;46.924;15.474;2022-09-09T15:16:04;2.40;;;1.48;;
27201;SDS011;14717;46.924;15.474;2022-09-09T15:18:34;2.83;;;1.40;;
27201;SDS011;14717;46.924;15.474;2022-09-09T15:21:02;4.35;;;1.40;;
27201;SDS011;14717;46.924;15.474;2022-09-09T15:23:32;3.17;;;1.50;;
27201;SDS011;14717;46.924;15.474;2022-09-09T15:25:59;3.53;;;1.55;;
27201;SDS011;14717;46.924;15.474;2022-09-09T15:28:25;3.60;;;1.73;;
27201;SDS011;14717;46.924;15.474;2022-09-09T15:30:51;4.50;;;1.80;;
27201;SDS011;14717;46.924;15.474;2022-09-09T15:33:21;4.55;;;1.70;;
27201;SDS011;14717;46.924;15.474;2022-09-09T15:35:47;6.75;;;1.70;;
27201;SDS011;14717;46.924;15.474;2022-09-09T15:38:14;3.35;;;1.70;;
27201;SDS011;14717;46.924;15.474;2022-09-09T15:40:42;3.13;;;1.80;;
27201;SDS011;14717;46.924;15.474;2022-09-09T15:43:08;4.50;;;1.73;;
27201;SDS011;14717;46.924;15.474;2022-09-09T15:45:35;3.55;;;1.55;;
27201;SDS011;14717;46.924;15.474;2022-09-09T15:48:02;3.33;;;1.52;;
27201;SDS011;14717;46.924;15.474;2022-09-09T15:50:28;4.38;;;1.60;;
27201;SDS011;14717;46.924;15.474;2022-09-09T15:52:57;3.78;;;1.60;;
27201;SDS011;14717;46.924;15.474;2022-09-09T15:55:26;3.38;;;1.63;;
27201;SDS011;14717;46.924;15.474;2022-09-09T15:57:51;2.70;;;1.65;;
27201;SDS011;14717;46.924;15.474;2022-09-09T16:00:20;6.82;;;1.60;;
27201;SDS011;14717;46.924;15.474;2022-09-09T16:02:46;4.70;;;1.73;;
27201;SDS011;14717;46.924;15.474;2022-09-09T16:05:12;5.30;;;1.60;;
27201;SDS011;14717;46.924;15.474;2022-09-09T16:07:37;2.75;;;1.70;;
27201;SDS011;14717;46.924;15.474;2022-09-09T16:10:03;4.10;;;1.95;;
27201;SDS011;14717;46.924;15.474;2022-09-09T16:12:29;6.35;;;1.90;;
27201;SDS011;14717;46.924;15.474;2022-09-09T16:14:56;4.68;;;2.35;;
27201;SDS011;14717;46.924;15.474;2022-09-09T16:17:21;4.88;;;1.63;;
27201;SDS011;14717;46.924;15.474;2022-09-09T16:19:47;4.93;;;1.75;;
27201;SDS011;14717;46.924;15.474;2022-09-09T16:22:12;2.78;;;1.95;;
27201;SDS011;14717;46.924;15.474;2022-09-09T16:24:40;2.35;;;1.42;;
27201;SDS011;14717;46.924;15.474;2022-09-09T16:27:05;3.70;;;1.95;;
27201;SDS011;14717;46.924;15.474;2022-09-09T16:29:31;4.25;;;1.95;;
27201;SDS011;14717;46.924;15.474;2022-09-09T16:31:57;4.88;;;1.73;;
27201;SDS011;14717;46.924;15.474;2022-09-09T16:34:23;3.55;;;1.65;;
27201;SDS011;14717;46.924;15.474;2022-09-09T16:36:50;3.17;;;1.70;;
27201;SDS011;14717;46.924;15.474;2022-09-09T16:39:19;4.03;;;1.63;;
27201;SDS011;14717;46.924;15.474;2022-09-09T16:41:46;3.45;;;1.67;;
27201;SDS011;14717;46.924;15.474;2022-09-09T16:44:13;7.55;;;1.70;;
27201;SDS011;14717;46.924;15.474;2022-09-09T16:46:44;2.70;;;1.45;;
27201;SDS011;14717;46.924;15.474;2022-09-09T16:49:13;5.05;;;1.80;;
27201;SDS011;14717;46.924;15.474;2022-09-09T16:51:44;2.85;;;1.60;;
27201;SDS011;14717;46.924;15.474;2022-09-09T16:54:12;2.40;;;1.67;;
27201;SDS011;14717;46.924;15.474;2022-09-09T16:56:40;3.38;;;1.52;;
27201;SDS011;14717;46.924;15.474;2022-09-09T16:59:13;5.35;;;1.50;;
27201;SDS011;14717;46.924;15.474;2022-09-09T17:01:41;3.17;;;1.90;;
27201;SDS011;14717;46.924;15.474;2022-09-09T17:04:12;4.65;;;1.48;;
27201;SDS011;14717;46.924;15.474;2022-09-09T17:06:45;4.93;;;1.55;;
27201;SDS011;14717;46.924;15.474;2022-09-09T17:09:12;2.63;;;1.48;;
27201;SDS011;14717;46.924;15.474;2022-09-09T17:11:38;2.70;;;1.80;;
27201;SDS011;14717;46.924;15.474;2022-09-09T17:14:04;3.60;;;1.73;;
27201;SDS011;14717;46.924;15.474;2022-09-09T17:16:32;3.78;;;1.80;;
27201;SDS011;14717;46.924;15.474;2022-09-09T17:19:02;6.05;;;1.95;;
27201;SDS011;14717;46.924;15.474;2022-09-09T17:21:29;3.50;;;1.73;;
27201;SDS011;14717;46.924;15.474;2022-09-09T17:23:55;5.20;;;1.98;;
27201;SDS011;14717;46.924;15.474;2022-09-09T17:26:26;3.20;;;1.60;;
27201;SDS011;14717;46.924;15.474;2022-09-09T17:28:54;4.32;;;1.60;;
27201;SDS011;14717;46.924;15.474;2022-09-09T17:31:22;3.30;;;1.77;;
27201;SDS011;14717;46.924;15.474;2022-09-09T17:33:51;3.40;;;1.77;;
27201;SDS011;14717;46.924;15.474;2022-09-09T17:36:27;4.63;;;1.70;;
27201;SDS011;14717;46.924;15.474;2022-09-09T17:38:55;3.15;;;1.60;;
27201;SDS011;14717;46.924;15.474;2022-09-09T17:41:32;3.10;;;1.70;;
27201;SDS011;14717;46.924;15.474;2022-09-09T17:43:59;3.35;;;1.63;;
27201;SDS011;14717;46.924;15.474;2022-09-09T17:46:32;2.60;;;1.60;;
27201;SDS011;14717;46.924;15.474;2022-09-09T17:49:00;3.85;;;1.73;;
27201;SDS011;14717;46.924;15.474;2022-09-09T17:51:31;4.97;;;1.92;;
27201;SDS011;14717;46.924;15.474;2022-09-09T17:54:03;3.67;;;1.75;;
27201;SDS011;14717;46.924;15.474;2022-09-09T17:56:34;3.88;;;1.75;;
27201;SDS011;14717;46.924;15.474;2022-09-09T17:59:02;3.88;;;2.28;;
27201;SDS011;14717;46.924;15.474;2022-09-09T18:01:31;3.97;;;1.92;;
27201;SDS011;14717;46.924;15.474;2022-09-09T18:03:59;4.70;;;1.92;;
27201;SDS011;14717;46.924;15.474;2022-09-09T18:06:28;3.22;;;1.92;;
27201;SDS011;14717;46.924;15.474;2022-09-09T18:09:08;3.88;;;1.70;;
27201;SDS011;14717;46.924;15.474;2022-09-09T18:11:38;3.70;;;1.90;;
27201;SDS011;14717;46.924;15.474;2022-09-09T18:14:08;5.40;;;1.75;;